Time;durP1;ratioP1;P1;durP2;ratioP2;P2;SDS_P1;SDS_P2;PMS_P1;PMS_P2;Temp;Humidity;BMP_temperature;BMP_pressure;BME280_temperature;BME280_humidity;BME280_pressure;Samples;Min_cycle;Max_cycle;Signal;HPM_P1;HPM_P2
2022/03/01 00:01:43;;;;;;;;;;;1.30;99.90;;;;;;5096691;28;19924;-62
2022/03/01 00:04:09;;;;;;;;;;;1.40;99.90;;;;;;5114811;28;20014;-62
2022/03/01 00:06:35;;;;;;;;;;;1.30;99.90;;;;;;5114817;28;20409;-61
2022/03/01 00:09:00;;;;;;;;;;;1.30;99.90;;;;;;5115144;28;19923;-62
2022/03/01 00:11:26;;;;;;;;;;;1.30;99.90;;;;;;5114575;28;20016;-62
2022/03/01 00:13:51;;;;;;;;;;;1.30;99.90;;;;;;5115576;28;19932;-62
2022/03/01 00:16:17;;;;;;;;;;;1.30;99.90;;;;;;5096491;28;20397;-62
2022/03/01 00:18:44;;;;;;;;;;;1.30;99.90;;;;;;5114620;28;19931;-61
2022/03/01 00:21:10;;;;;;;;;;;1.30;99.90;;;;;;5114230;28;20258;-62
2022/03/01 00:23:35;;;;;;;;;;;1.20;99.90;;;;;;5114887;28;19928;-61
2022/03/01 00:26:01;;;;;;;;;;;1.20;99.90;;;;;;5114489;28;20055;-62
2022/03/01 00:28:27;;;;;;;;;;;1.10;99.90;;;;;;5114894;28;19928;-62
2022/03/01 00:30:52;;;;;;;;;;;1.10;99.90;;;;;;5114573;28;20374;-61
2022/03/01 00:33:18;;;;;;;;;;;1.00;99.90;;;;;;5114114;28;20387;-62
2022/03/01 00:35:43;;;;;;;;;;;0.90;99.90;;;;;;5114689;28;19928;-62
2022/03/01 00:38:09;;;;;;;;;;;0.90;99.90;;;;;;5096619;28;19969;-61
2022/03/01 00:40:35;;;;;;;;;;;0.90;99.90;;;;;;5114018;28;20296;-62
2022/03/01 00:43:00;;;;;;;;;;;0.90;99.90;;;;;;5114135;28;20389;-62
2022/03/01 00:45:26;;;;;;;;;;;0.90;99.90;;;;;;5113916;28;19932;-61
2022/03/01 00:47:52;;;;;;;;;;;0.90;99.90;;;;;;5114777;28;19923;-61
2022/03/01 00:50:17;;;;;;;;;;;0.90;99.90;;;;;;5114005;28;19923;-61
2022/03/01 00:52:46;;;;;;;;;;;0.90;99.90;;;;;;5113731;28;19924;-61
2022/03/01 00:55:11;;;;;;;;;;;0.80;99.90;;;;;;5114699;28;19931;-61
2022/03/01 00:57:37;;;;;;;;;;;0.90;99.90;;;;;;5095885;28;20099;-61
2022/03/01 01:00:04;;;;;;;;;;;0.90;99.90;;;;;;5094734;28;19935;-61
2022/03/01 01:02:30;;;;;;;;;;;0.80;99.90;;;;;;5114436;28;19931;-61
2022/03/01 01:04:55;;;;;;;;;;;0.80;99.90;;;;;;5113953;28;19924;-62
2022/03/01 01:07:21;;;;;;;;;;;0.80;99.90;;;;;;5113476;28;20032;-61
2022/03/01 01:09:47;;;;;;;;;;;0.80;99.90;;;;;;5095685;28;19923;-61
2022/03/01 01:12:12;;;;;;;;;;;0.80;99.90;;;;;;5114015;28;19928;-61
2022/03/01 01:14:38;;;;;;;;;;;0.80;99.90;;;;;;5113359;28;19924;-61
2022/03/01 01:17:04;;;;;;;;;;;0.80;99.90;;;;;;5095428;28;20443;-61
2022/03/01 01:19:29;;;;;;;;;;;0.80;99.90;;;;;;5113547;28;19935;-62
2022/03/01 01:24:39;;;;;;;;;;;0.90;99.90;;;;;;5114181;28;19924;-61
2022/03/01 01:27:05;;;;;;;;;;;0.80;99.90;;;;;;5113564;28;20000;-61
2022/03/01 01:29:31;;;;;;;;;;;0.80;99.90;;;;;;5113201;28;19923;-62
2022/03/01 01:31:56;;;;;;;;;;;0.80;99.90;;;;;;5112592;28;20006;-61
2022/03/01 01:34:22;;;;;;;;;;;0.80;99.90;;;;;;5113548;28;20015;-62
2022/03/01 01:36:47;;;;;;;;;;;0.80;99.90;;;;;;5112910;28;19927;-61
2022/03/01 01:39:13;;;;;;;;;;;0.80;99.90;;;;;;5095615;28;19971;-61
2022/03/01 01:41:39;;;;;;;;;;;0.80;99.90;;;;;;5113231;28;19923;-61
2022/03/01 01:44:05;;;;;;;;;;;0.80;99.90;;;;;;5094953;28;19923;-62
2022/03/01 01:46:31;;;;;;;;;;;0.80;99.90;;;;;;5113806;28;19924;-62
2022/03/01 01:48:56;;;;;;;;;;;0.80;99.90;;;;;;5112556;28;19924;-61
2022/03/01 01:51:24;;;;;;;;;;;0.80;99.90;;;;;;5095163;28;19924;-61
2022/03/01 01:53:49;;;;;;;;;;;0.80;99.90;;;;;;5095322;28;19923;-61
2022/03/01 01:56:15;;;;;;;;;;;0.80;99.90;;;;;;5105718;28;20767;-61
2022/03/01 01:58:40;;;;;;;;;;;0.80;99.90;;;;;;5094720;28;19930;-62
2022/03/01 02:01:06;;;;;;;;;;;0.70;99.90;;;;;;5094170;28;19928;-61
2022/03/01 02:03:32;;;;;;;;;;;0.70;99.90;;;;;;5112064;28;19927;-62
2022/03/01 02:05:57;;;;;;;;;;;0.70;99.90;;;;;;5095156;28;19943;-62
2022/03/01 02:08:30;;;;;;;;;;;0.70;99.90;;;;;;5113025;28;19971;-62
2022/03/01 02:10:56;;;;;;;;;;;0.70;99.90;;;;;;5112059;28;19934;-61
2022/03/01 02:13:21;;;;;;;;;;;0.60;99.90;;;;;;5112105;28;20286;-61
2022/03/01 02:15:47;;;;;;;;;;;0.70;99.90;;;;;;5113718;28;19924;-61
2022/03/01 02:18:13;;;;;;;;;;;0.70;99.90;;;;;;5111797;28;20010;-62
2022/03/01 02:20:39;;;;;;;;;;;0.70;99.90;;;;;;5112869;28;20019;-61
2022/03/01 02:23:05;;;;;;;;;;;0.70;99.90;;;;;;5095004;28;19977;-61
2022/03/01 02:25:30;;;;;;;;;;;0.70;99.90;;;;;;5112458;28;19920;-62
2022/03/01 02:27:56;;;;;;;;;;;0.70;99.90;;;;;;5112983;28;20355;-61
2022/03/01 02:30:21;;;;;;;;;;;0.70;99.90;;;;;;5113550;28;20335;-61
2022/03/01 02:32:47;;;;;;;;;;;0.70;99.90;;;;;;5094332;28;19920;-61
2022/03/01 02:35:13;;;;;;;;;;;0.70;99.90;;;;;;5094838;28;19924;-62
2022/03/01 02:37:39;;;;;;;;;;;0.70;99.90;;;;;;5113023;28;19962;-61
2022/03/01 02:40:06;;;;;;;;;;;0.70;99.90;;;;;;5093996;28;19928;-61
2022/03/01 02:42:31;;;;;;;;;;;0.70;99.90;;;;;;5113259;28;20027;-61
2022/03/01 02:44:57;;;;;;;;;;;0.70;99.90;;;;;;5094088;28;19971;-61
2022/03/01 02:47:23;;;;;;;;;;;0.70;99.90;;;;;;5094452;28;19928;-61
2022/03/01 02:49:49;;;;;;;;;;;0.70;99.90;;;;;;5112929;28;19924;-61
2022/03/01 02:52:14;;;;;;;;;;;0.70;99.90;;;;;;5112539;28;19924;-61
2022/03/01 02:54:40;;;;;;;;;;;0.70;99.90;;;;;;5112694;28;19963;-61
2022/03/01 02:57:06;;;;;;;;;;;0.70;99.90;;;;;;5116807;28;20336;-61
2022/03/01 02:59:32;;;;;;;;;;;0.70;99.90;;;;;;5116175;28;19924;-61
2022/03/01 03:01:58;;;;;;;;;;;0.70;99.90;;;;;;5097874;28;19976;-61
2022/03/01 03:04:24;;;;;;;;;;;0.70;99.90;;;;;;5116013;28;20022;-61
2022/03/01 03:06:50;;;;;;;;;;;0.70;99.90;;;;;;5116135;28;19923;-61
2022/03/01 03:09:15;;;;;;;;;;;0.70;99.90;;;;;;5116463;28;20007;-61
2022/03/01 03:11:41;;;;;;;;;;;0.70;99.90;;;;;;5115951;28;19930;-61
2022/03/01 03:14:07;;;;;;;;;;;0.60;99.90;;;;;;5115777;28;19977;-61
2022/03/01 03:16:34;;;;;;;;;;;0.60;99.90;;;;;;5115932;28;21294;-61
2022/03/01 03:19:00;;;;;;;;;;;0.60;99.90;;;;;;5115786;28;19930;-61
2022/03/01 03:21:25;;;;;;;;;;;0.70;99.90;;;;;;5115128;28;19927;-61
2022/03/01 03:23:51;;;;;;;;;;;0.60;99.90;;;;;;5116586;28;19924;-61
2022/03/01 03:26:17;;;;;;;;;;;0.60;99.90;;;;;;5114699;28;19924;-61
2022/03/01 03:28:42;;;;;;;;;;;0.60;99.90;;;;;;5115820;28;20301;-61
2022/03/01 03:31:08;;;;;;;;;;;0.60;99.90;;;;;;5116053;28;20401;-61
2022/03/01 03:33:33;;;;;;;;;;;0.50;99.90;;;;;;5115696;28;19967;-61
2022/03/01 03:35:59;;;;;;;;;;;0.40;99.90;;;;;;5115594;28;19924;-61
2022/03/01 03:38:25;;;;;;;;;;;0.30;99.90;;;;;;5115816;28;19924;-61
2022/03/01 03:40:51;;;;;;;;;;;0.20;99.90;;;;;;5115696;28;19924;-61
2022/03/01 03:43:16;;;;;;;;;;;0.20;99.90;;;;;;5097027;28;19924;-61
2022/03/01 03:45:42;;;;;;;;;;;0.10;99.90;;;;;;5115939;28;20380;-61
2022/03/01 03:48:08;;;;;;;;;;;0.10;99.90;;;;;;5113879;28;20312;-61
2022/03/01 03:50:34;;;;;;;;;;;0.10;99.90;;;;;;5115006;28;20385;-61
2022/03/01 03:52:59;;;;;;;;;;;0.00;99.90;;;;;;5097498;28;19965;-61
2022/03/01 03:55:25;;;;;;;;;;;0.00;99.90;;;;;;5110945;28;20013;-61
2022/03/01 03:57:51;;;;;;;;;;;0.10;99.90;;;;;;5113022;28;19946;-61
2022/03/01 04:00:17;;;;;;;;;;;0.10;99.90;;;;;;5115240;28;19923;-61
2022/03/01 04:02:43;;;;;;;;;;;0.10;99.90;;;;;;5114148;28;19931;-61
2022/03/01 04:05:09;;;;;;;;;;;0.10;99.90;;;;;;5114954;28;20392;-61
2022/03/01 04:07:35;;;;;;;;;;;0.20;99.90;;;;;;5096585;28;19924;-61
2022/03/01 04:10:01;;;;;;;;;;;0.20;99.90;;;;;;5095513;28;19924;-61
2022/03/01 04:12:26;;;;;;;;;;;0.20;99.90;;;;;;5115078;28;20022;-61
2022/03/01 04:14:52;;;;;;;;;;;0.30;99.90;;;;;;5115038;28;19994;-61
2022/03/01 04:17:18;;;;;;;;;;;0.30;99.90;;;;;;5114014;28;19930;-61
2022/03/01 04:19:43;;;;;;;;;;;0.30;99.90;;;;;;5096652;28;19998;-61
2022/03/01 04:22:09;;;;;;;;;;;0.40;99.90;;;;;;5114607;28;19924;-61
2022/03/01 04:24:35;;;;;;;;;;;0.40;99.90;;;;;;5114063;28;19924;-61
2022/03/01 04:27:02;;;;;;;;;;;0.50;99.90;;;;;;5115177;28;20369;-61
2022/03/01 04:29:28;;;;;;;;;;;0.50;99.90;;;;;;5115035;28;19924;-62
2022/03/01 04:31:54;;;;;;;;;;;0.50;99.90;;;;;;5113731;28;20362;-62
2022/03/01 04:34:20;;;;;;;;;;;0.60;99.90;;;;;;5115221;28;19931;-62
2022/03/01 04:36:45;;;;;;;;;;;0.60;99.90;;;;;;5096479;28;19928;-62
2022/03/01 04:39:11;;;;;;;;;;;0.60;99.90;;;;;;5095456;28;19924;-62
2022/03/01 04:41:37;;;;;;;;;;;0.60;99.90;;;;;;5114239;28;19930;-61
2022/03/01 04:44:05;;;;;;;;;;;0.70;99.90;;;;;;5096441;28;19977;-62
2022/03/01 04:46:31;;;;;;;;;;;0.60;99.90;;;;;;5113117;28;20320;-62
2022/03/01 04:48:57;;;;;;;;;;;0.60;99.90;;;;;;5112739;28;19923;-61
2022/03/01 04:51:23;;;;;;;;;;;0.60;99.90;;;;;;5113084;28;20285;-62
2022/03/01 04:53:49;;;;;;;;;;;0.60;99.90;;;;;;5113208;28;20378;-61
2022/03/01 04:56:14;;;;;;;;;;;0.60;99.90;;;;;;5114413;28;20339;-61
2022/03/01 04:58:40;;;;;;;;;;;0.50;99.90;;;;;;5113160;28;19923;-61
2022/03/01 05:01:06;;;;;;;;;;;0.50;99.90;;;;;;5113433;28;20034;-61
2022/03/01 05:03:31;;;;;;;;;;;0.40;99.90;;;;;;5113679;28;20362;-61
2022/03/01 05:05:57;;;;;;;;;;;0.40;99.90;;;;;;5113735;28;19963;-62
2022/03/01 05:08:23;;;;;;;;;;;0.40;99.90;;;;;;5094430;28;19977;-62
2022/03/01 05:10:48;;;;;;;;;;;0.40;99.90;;;;;;5114213;28;19924;-61
2022/03/01 05:13:14;;;;;;;;;;;0.50;99.90;;;;;;5113434;28;19924;-62
2022/03/01 05:15:40;;;;;;;;;;;0.50;99.90;;;;;;5113505;28;19927;-62
2022/03/01 05:18:06;;;;;;;;;;;0.50;99.90;;;;;;5113823;28;19928;-62
2022/03/01 05:20:31;;;;;;;;;;;0.60;99.90;;;;;;5109696;28;19924;-62
2022/03/01 05:22:57;;;;;;;;;;;0.60;99.90;;;;;;5113732;28;20010;-62
2022/03/01 05:25:23;;;;;;;;;;;0.60;99.90;;;;;;5113907;28;20011;-62
2022/03/01 05:27:49;;;;;;;;;;;0.60;99.90;;;;;;5113381;28;19931;-62
2022/03/01 05:30:16;;;;;;;;;;;0.60;99.90;;;;;;5095499;28;19919;-61
2022/03/01 05:32:43;;;;;;;;;;;0.60;99.90;;;;;;5113908;28;19968;-62
2022/03/01 05:35:09;;;;;;;;;;;0.70;99.90;;;;;;5113246;28;20409;-61
2022/03/01 05:37:36;;;;;;;;;;;0.70;99.90;;;;;;5095184;28;20077;-61
2022/03/01 05:40:02;;;;;;;;;;;0.70;99.90;;;;;;5112449;28;19924;-61
2022/03/01 05:42:27;;;;;;;;;;;0.70;99.90;;;;;;5094207;28;19930;-62
2022/03/01 05:44:53;;;;;;;;;;;0.80;99.90;;;;;;5113606;28;19928;-61
2022/03/01 05:47:19;;;;;;;;;;;0.80;99.90;;;;;;5113829;28;20403;-60
2022/03/01 05:49:45;;;;;;;;;;;0.80;99.90;;;;;;5113209;28;20350;-61
2022/03/01 05:52:10;;;;;;;;;;;0.80;99.90;;;;;;5113503;28;19967;-60
2022/03/01 05:54:36;;;;;;;;;;;0.80;99.90;;;;;;5095184;28;19934;-61
2022/03/01 05:57:02;;;;;;;;;;;0.90;99.90;;;;;;5101939;28;19924;-61
2022/03/01 05:59:27;;;;;;;;;;;0.90;99.90;;;;;;5094919;28;20018;-60
2022/03/01 06:01:53;;;;;;;;;;;0.90;99.90;;;;;;5112575;28;19977;-61
2022/03/01 06:04:18;;;;;;;;;;;0.90;99.90;;;;;;5094732;28;19923;-61
2022/03/01 06:06:44;;;;;;;;;;;0.90;99.90;;;;;;5113595;28;19999;-61
2022/03/01 06:09:10;;;;;;;;;;;1.00;99.90;;;;;;5093389;28;19924;-61
2022/03/01 06:11:35;;;;;;;;;;;1.00;99.90;;;;;;5095099;28;20084;-61
2022/03/01 06:14:01;;;;;;;;;;;1.00;99.90;;;;;;5113226;28;19971;-60
2022/03/01 06:16:27;;;;;;;;;;;1.00;99.90;;;;;;5112375;28;19986;-61
2022/03/01 06:18:53;;;;;;;;;;;1.00;99.90;;;;;;5094770;28;19970;-61
2022/03/01 06:21:19;;;;;;;;;;;1.00;99.90;;;;;;5113024;28;20011;-60
2022/03/01 06:23:45;;;;;;;;;;;1.00;99.90;;;;;;5112240;28;19931;-61
2022/03/01 06:26:11;;;;;;;;;;;0.90;99.90;;;;;;5112931;28;19923;-61
2022/03/01 06:28:37;;;;;;;;;;;0.90;99.90;;;;;;5094916;28;20090;-61
2022/03/01 06:31:02;;;;;;;;;;;0.90;99.90;;;;;;5116375;28;20027;-61
2022/03/01 06:33:28;;;;;;;;;;;0.90;99.90;;;;;;5098963;28;19920;-61
2022/03/01 06:35:54;;;;;;;;;;;0.90;99.90;;;;;;5081880;28;19923;-61
2022/03/01 06:38:19;;;;;;;;;;;0.90;99.90;;;;;;5116159;28;20258;-60
2022/03/01 06:40:45;;;;;;;;;;;1.00;99.90;;;;;;5117191;28;20370;-60
2022/03/01 06:43:10;;;;;;;;;;;1.10;99.90;;;;;;5116771;28;19935;-61
2022/03/01 06:45:37;;;;;;;;;;;1.00;99.90;;;;;;5115854;28;19931;-60
2022/03/01 06:48:02;;;;;;;;;;;1.10;99.90;;;;;;5115716;28;19969;-60
2022/03/01 06:50:28;;;;;;;;;;;1.10;99.90;;;;;;5117087;28;19924;-61
2022/03/01 06:52:53;;;;;;;;;;;1.10;99.90;;;;;;5115461;28;19926;-61
2022/03/01 06:55:21;;;;;;;;;;;1.10;99.90;;;;;;5116802;28;19924;-61
2022/03/01 06:57:47;;;;;;;;;;;1.10;99.90;;;;;;5098451;28;19928;-61
2022/03/01 07:00:13;;;;;;;;;;;1.20;99.90;;;;;;5115732;28;20386;-61
2022/03/01 07:02:40;;;;;;;;;;;1.20;99.90;;;;;;5116423;28;20300;-61
2022/03/01 07:05:06;;;;;;;;;;;1.20;99.90;;;;;;5098732;28;19919;-61
2022/03/01 07:07:32;;;;;;;;;;;1.30;99.90;;;;;;5115526;28;19946;-60
2022/03/01 07:09:58;;;;;;;;;;;1.30;99.90;;;;;;5116132;28;20011;-61
2022/03/01 07:12:23;;;;;;;;;;;1.30;99.90;;;;;;5097449;28;19923;-61
2022/03/01 07:14:49;;;;;;;;;;;1.40;99.90;;;;;;5098233;28;19931;-61
2022/03/01 07:17:16;;;;;;;;;;;1.40;99.90;;;;;;5116508;28;20396;-61
2022/03/01 07:19:41;;;;;;;;;;;1.40;99.90;;;;;;5096830;28;19996;-60
2022/03/01 07:22:07;;;;;;;;;;;1.40;99.90;;;;;;5115714;28;20344;-61
2022/03/01 07:24:33;;;;;;;;;;;1.40;99.90;;;;;;5116439;28;20014;-61
2022/03/01 07:26:58;;;;;;;;;;;1.50;99.90;;;;;;5115545;28;19924;-61
2022/03/01 07:29:24;;;;;;;;;;;1.50;99.90;;;;;;5115777;28;19924;-61
2022/03/01 07:31:49;;;;;;;;;;;1.50;99.90;;;;;;5116293;28;19931;-61
2022/03/01 07:34:24;;;;;;;;;;;1.50;99.90;;;;;;5115095;28;21374;-60
2022/03/01 07:36:49;;;;;;;;;;;1.60;99.90;;;;;;5115063;28;20014;-61
2022/03/01 07:39:15;;;;;;;;;;;1.60;99.90;;;;;;5115870;28;19950;-60
2022/03/01 07:41:41;;;;;;;;;;;1.60;99.90;;;;;;5114825;28;19924;-61
2022/03/01 07:44:07;;;;;;;;;;;1.60;99.90;;;;;;5093699;28;19924;-60
2022/03/01 07:46:33;;;;;;;;;;;1.80;99.90;;;;;;5105488;28;19969;-60
2022/03/01 07:48:58;;;;;;;;;;;1.90;99.90;;;;;;5098342;28;20320;-60
2022/03/01 07:51:24;;;;;;;;;;;2.00;99.90;;;;;;5114148;28;20370;-60
2022/03/01 07:53:50;;;;;;;;;;;2.00;99.90;;;;;;5115068;28;19933;-61
2022/03/01 07:56:20;;;;;;;;;;;2.10;99.90;;;;;;5113997;28;19953;-61
2022/03/01 07:58:46;;;;;;;;;;;2.20;99.90;;;;;;5114525;28;19927;-61
2022/03/01 08:01:12;;;;;;;;;;;2.30;99.90;;;;;;5113652;28;19988;-61
2022/03/01 08:03:37;;;;;;;;;;;2.90;99.90;;;;;;5114307;28;20393;-61
2022/03/01 08:06:03;;;;;;;;;;;2.70;99.90;;;;;;5114499;28;19928;-61
2022/03/01 08:08:29;;;;;;;;;;;2.50;99.90;;;;;;5096514;28;20523;-60
2022/03/01 08:10:54;;;;;;;;;;;2.40;99.90;;;;;;5079646;28;19924;-61
2022/03/01 08:13:20;;;;;;;;;;;2.80;99.90;;;;;;5114617;28;20010;-61
2022/03/01 08:15:45;;;;;;;;;;;2.80;99.90;;;;;;5095610;28;19924;-61
2022/03/01 08:18:11;;;;;;;;;;;2.70;99.90;;;;;;5115035;28;19976;-61
2022/03/01 08:20:37;;;;;;;;;;;2.80;99.90;;;;;;5114005;28;19923;-61
2022/03/01 08:23:02;;;;;;;;;;;3.30;99.90;;;;;;5096364;28;19935;-61
2022/03/01 08:25:28;;;;;;;;;;;3.10;99.90;;;;;;5094708;28;20366;-61
2022/03/01 08:27:56;;;;;;;;;;;3.20;99.90;;;;;;5094462;28;19920;-61
2022/03/01 08:30:22;;;;;;;;;;;3.20;99.90;;;;;;5081937;28;19930;-61
2022/03/01 08:32:49;;;;;;;;;;;3.30;99.90;;;;;;5114907;28;19969;-61
2022/03/01 08:35:15;;;;;;;;;;;3.00;99.90;;;;;;5114485;28;19969;-60
2022/03/01 08:37:40;;;;;;;;;;;3.10;99.90;;;;;;5113907;28;19996;-61
2022/03/01 08:40:06;;;;;;;;;;;3.20;99.90;;;;;;5114221;28;20366;-61
2022/03/01 08:42:32;;;;;;;;;;;3.00;99.90;;;;;;5078207;28;20420;-61
2022/03/01 08:44:58;;;;;;;;;;;3.10;99.90;;;;;;5113799;28;20009;-61
2022/03/01 08:47:25;;;;;;;;;;;3.50;99.90;;;;;;5113908;28;19973;-61
2022/03/01 08:49:52;;;;;;;;;;;3.30;99.90;;;;;;5113877;28;19923;-61
2022/03/01 08:52:17;;;;;;;;;;;3.20;99.90;;;;;;5094827;28;19965;-61
2022/03/01 08:54:43;;;;;;;;;;;3.80;99.90;;;;;;5096397;28;19924;-61
2022/03/01 08:57:09;;;;;;;;;;;3.20;99.90;;;;;;5114011;28;19970;-61
2022/03/01 08:59:34;;;;;;;;;;;3.70;99.90;;;;;;5113016;28;20018;-61
2022/03/01 09:02:00;;;;;;;;;;;3.50;99.90;;;;;;5114128;28;19931;-61
2022/03/01 09:04:25;;;;;;;;;;;3.50;99.90;;;;;;5095964;28;19934;-61
2022/03/01 09:06:51;;;;;;;;;;;3.50;99.90;;;;;;5112732;28;19931;-61
2022/03/01 09:09:17;;;;;;;;;;;3.80;99.90;;;;;;5114223;28;19981;-61
2022/03/01 09:11:42;;;;;;;;;;;3.80;99.90;;;;;;5095924;28;19969;-62
2022/03/01 09:14:08;;;;;;;;;;;4.50;99.90;;;;;;5112982;28;20274;-61
2022/03/01 09:16:33;;;;;;;;;;;4.30;99.90;;;;;;5112507;28;19930;-61
2022/03/01 09:18:59;;;;;;;;;;;4.30;99.90;;;;;;5094736;28;19923;-62
2022/03/01 09:21:25;;;;;;;;;;;4.40;99.90;;;;;;5094927;28;19982;-62
2022/03/01 09:23:50;;;;;;;;;;;4.60;99.90;;;;;;5095229;28;20266;-61
2022/03/01 09:26:16;;;;;;;;;;;4.50;99.90;;;;;;5113318;28;19985;-62
2022/03/01 09:28:42;;;;;;;;;;;4.40;99.90;;;;;;5113843;28;19923;-62
2022/03/01 09:31:10;;;;;;;;;;;4.40;99.90;;;;;;5095686;28;19934;-61
2022/03/01 09:33:42;;;;;;;;;;;4.80;99.90;;;;;;5094749;28;19924;-61
2022/03/01 09:36:09;;;;;;;;;;;4.60;99.90;;;;;;5113759;28;19934;-61
2022/03/01 09:38:35;;;;;;;;;;;4.60;99.90;;;;;;5114023;28;19923;-61
2022/03/01 09:41:00;;;;;;;;;;;5.30;99.90;;;;;;5112974;28;19923;-61
2022/03/01 09:43:26;;;;;;;;;;;4.70;99.90;;;;;;5113191;28;20002;-61
2022/03/01 09:45:52;;;;;;;;;;;4.70;99.90;;;;;;5114042;28;19931;-61
2022/03/01 09:48:17;;;;;;;;;;;4.90;99.90;;;;;;5094927;28;19923;-62
2022/03/01 09:50:45;;;;;;;;;;;4.90;99.90;;;;;;5094733;28;19924;-61
2022/03/01 09:53:10;;;;;;;;;;;5.10;99.90;;;;;;5113778;28;20022;-61
2022/03/01 09:55:36;;;;;;;;;;;5.20;99.90;;;;;;5094652;28;20028;-61
2022/03/01 09:58:02;;;;;;;;;;;5.30;99.90;;;;;;5113412;28;19931;-61
2022/03/01 10:00:28;;;;;;;;;;;5.30;99.90;;;;;;5113353;28;19924;-61
2022/03/01 10:02:55;;;;;;;;;;;5.30;99.90;;;;;;5112854;28;20275;-62
2022/03/01 10:05:30;;;;;;;;;;;5.30;99.90;;;;;;5116415;28;20440;-61
2022/03/01 10:08:05;;;;;;;;;;;5.30;99.90;;;;;;5117791;28;19928;-61
2022/03/01 10:10:35;;;;;;;;;;;5.40;99.90;;;;;;5099275;28;19924;-62
2022/03/01 10:13:01;;;;;;;;;;;;;;;;;;5099101;28;19930;-62
2022/03/01 10:15:28;;;;;;;;;;;5.50;99.90;;;;;;5116794;28;20018;-62
2022/03/01 10:17:53;;;;;;;;;;;5.60;99.90;;;;;;5117393;28;20409;-62
2022/03/01 10:20:19;;;;;;;;;;;5.60;99.90;;;;;;5117181;28;19930;-62
2022/03/01 10:22:46;;;;;;;;;;;5.70;99.90;;;;;;5112640;28;20382;-62
2022/03/01 10:25:12;;;;;;;;;;;5.60;99.90;;;;;;5098199;28;19919;-62
2022/03/01 10:27:38;;;;;;;;;;;5.50;99.90;;;;;;5116871;28;19923;-62
2022/03/01 10:30:05;;;;;;;;;;;5.50;99.90;;;;;;5116626;28;19930;-63
2022/03/01 10:32:31;;;;;;;;;;;5.50;99.90;;;;;;5098850;28;19920;-62
2022/03/01 10:35:04;;;;;;;;;;;5.60;99.90;;;;;;5098134;28;19924;-62
2022/03/01 10:37:31;;;;;;;;;;;5.70;99.90;;;;;;5116397;28;19926;-62
2022/03/01 10:40:10;;;;;;;;;;;5.70;99.90;;;;;;5098798;28;20014;-62
2022/03/01 10:42:35;;;;;;;;;;;6.00;99.90;;;;;;5116485;28;20031;-62
2022/03/01 10:45:01;;;;;;;;;;;6.30;99.90;;;;;;5098061;28;20062;-62
2022/03/01 10:47:28;;;;;;;;;;;6.60;99.90;;;;;;5099165;28;19946;-62
2022/03/01 10:50:02;;;;;;;;;;;7.00;99.90;;;;;;5098356;28;19978;-62
2022/03/01 10:52:31;;;;;;;;;;;7.70;99.90;;;;;;5115938;28;19924;-62
2022/03/01 10:54:57;;;;;;;;;;;8.30;99.90;;;;;;5117117;28;20301;-62
2022/03/01 10:57:23;;;;;;;;;;;9.00;99.90;;;;;;5097287;28;19930;-62
2022/03/01 10:59:49;;;;;;;;;;;9.50;99.90;;;;;;5117039;28;19931;-62
2022/03/01 11:02:21;;;;;;;;;;;9.90;99.90;;;;;;5113865;28;19930;-62
2022/03/01 11:04:47;;;;;;;;;;;10.30;99.90;;;;;;5096898;28;20584;-62
2022/03/01 11:07:13;;;;;;;;;;;9.90;99.10;;;;;;5115932;28;19947;-62
2022/03/01 11:09:39;;;;;;;;;;;9.70;99.20;;;;;;5114952;28;20381;-62
2022/03/01 11:12:06;;;;;;;;;;;9.20;99.90;;;;;;5096703;28;19927;-62
2022/03/01 11:14:39;;;;;;;;;;;9.00;99.90;;;;;;5116080;28;19923;-62
2022/03/01 11:17:16;;;;;;;;;;;8.60;99.90;;;;;;5114047;28;19924;-62
2022/03/01 11:19:57;;;;;;;;;;;8.40;99.90;;;;;;5112664;28;20449;-62
2022/03/01 11:22:27;;;;;;;;;;;8.30;99.90;;;;;;5113703;28;20267;-62
2022/03/01 11:24:54;;;;;;;;;;;8.40;99.90;;;;;;5096973;28;20407;-62
2022/03/01 11:27:21;;;;;;;;;;;8.50;99.90;;;;;;5114426;28;19931;-62
2022/03/01 11:29:47;;;;;;;;;;;8.70;99.90;;;;;;5115099;28;20398;-62
2022/03/01 11:32:15;;;;;;;;;;;9.00;99.90;;;;;;5115661;28;19931;-62
2022/03/01 11:34:41;;;;;;;;;;;8.90;99.90;;;;;;5115303;28;19923;-62
2022/03/01 11:37:12;;;;;;;;;;;8.80;99.90;;;;;;5115981;28;19942;-62
2022/03/01 11:39:38;;;;;;;;;;;8.70;99.90;;;;;;5115463;28;20014;-62
2022/03/01 11:42:06;;;;;;;;;;;8.60;99.90;;;;;;5115752;28;20350;-62
2022/03/01 11:44:33;;;;;;;;;;;8.40;99.90;;;;;;5115812;28;20438;-62
2022/03/01 11:47:02;;;;;;;;;;;8.20;99.90;;;;;;5114252;28;20297;-62
2022/03/01 11:49:32;;;;;;;;;;;8.10;99.90;;;;;;5115664;28;20416;-62
2022/03/01 11:51:58;;;;;;;;;;;8.10;99.90;;;;;;5116040;28;19920;-62
2022/03/01 11:54:27;;;;;;;;;;;8.10;99.90;;;;;;5114849;28;19923;-62
2022/03/01 11:56:54;;;;;;;;;;;8.10;99.90;;;;;;5097542;28;20271;-62
2022/03/01 11:59:21;;;;;;;;;;;8.10;99.90;;;;;;5097633;28;19920;-62
2022/03/01 12:01:46;;;;;;;;;;;8.00;99.90;;;;;;5114745;28;20018;-62
2022/03/01 12:04:12;;;;;;;;;;;8.00;99.90;;;;;;5113204;28;20015;-62
2022/03/01 12:06:38;;;;;;;;;;;8.00;99.90;;;;;;5115599;28;19924;-62
2022/03/01 12:09:05;;;;;;;;;;;8.00;99.90;;;;;;5104125;28;20286;-62
2022/03/01 12:11:32;;;;;;;;;;;8.00;99.90;;;;;;5100087;28;19938;-62
2022/03/01 12:14:05;;;;;;;;;;;8.00;99.90;;;;;;5115275;28;19924;-62
2022/03/01 12:16:32;;;;;;;;;;;8.10;99.90;;;;;;5092872;28;19934;-62
2022/03/01 12:19:09;;;;;;;;;;;8.10;99.90;;;;;;5110808;28;19924;-62
2022/03/01 12:21:35;;;;;;;;;;;8.00;99.90;;;;;;5095069;28;20398;-62
2022/03/01 12:24:01;;;;;;;;;;;8.00;99.90;;;;;;5114290;28;19977;-62
2022/03/01 12:26:27;;;;;;;;;;;7.90;99.90;;;;;;5101337;28;20003;-62
2022/03/01 12:28:56;;;;;;;;;;;7.80;99.90;;;;;;5078687;28;19920;-62
2022/03/01 12:31:25;;;;;;;;;;;7.70;99.90;;;;;;5115169;28;19924;-62
2022/03/01 12:33:52;;;;;;;;;;;7.70;99.90;;;;;;5110160;28;19920;-62
2022/03/01 12:36:29;;;;;;;;;;;7.70;99.90;;;;;;5107094;28;19924;-62
2022/03/01 12:39:01;;;;;;;;;;;7.60;99.90;;;;;;5114279;28;19923;-62
2022/03/01 12:41:27;;;;;;;;;;;7.60;99.90;;;;;;5114118;28;19928;-62
2022/03/01 12:43:54;;;;;;;;;;;7.60;99.90;;;;;;5113300;28;19924;-62
2022/03/01 12:46:20;;;;;;;;;;;7.60;99.90;;;;;;5114232;28;19976;-62
2022/03/01 12:48:47;;;;;;;;;;;7.60;99.90;;;;;;5114425;28;20021;-62
2022/03/01 12:51:14;;;;;;;;;;;7.60;99.90;;;;;;5113444;28;20006;-62
2022/03/01 12:53:49;;;;;;;;;;;7.90;99.90;;;;;;5114564;28;20403;-62
2022/03/01 12:56:19;;;;;;;;;;;7.70;99.90;;;;;;5113696;28;19928;-63
2022/03/01 12:58:45;;;;;;;;;;;7.80;99.90;;;;;;5095395;28;20004;-63
2022/03/01 13:01:11;;;;;;;;;;;7.80;99.90;;;;;;5112925;28;19974;-63
2022/03/01 13:03:36;;;;;;;;;;;7.80;99.90;;;;;;5114388;28;19923;-63
2022/03/01 13:06:03;;;;;;;;;;;7.90;99.90;;;;;;5113578;28;19934;-63
2022/03/01 13:08:30;;;;;;;;;;;7.90;99.90;;;;;;5113972;28;19924;-62
2022/03/01 13:10:56;;;;;;;;;;;8.00;99.90;;;;;;5113703;28;19932;-63
2022/03/01 13:13:21;;;;;;;;;;;8.10;99.90;;;;;;5113948;28;19931;-63
2022/03/01 13:15:47;;;;;;;;;;;8.10;99.90;;;;;;5114460;28;20408;-63
2022/03/01 13:18:13;;;;;;;;;;;8.20;99.90;;;;;;5112967;28;19946;-63
2022/03/01 13:20:38;;;;;;;;;;;8.30;99.90;;;;;;5095537;28;19924;-63
2022/03/01 13:23:05;;;;;;;;;;;8.40;99.90;;;;;;5113475;28;20030;-63
2022/03/01 13:25:32;;;;;;;;;;;8.50;99.90;;;;;;5113067;28;20011;-63
2022/03/01 13:27:58;;;;;;;;;;;8.60;99.90;;;;;;5096031;28;19920;-63
2022/03/01 13:30:24;;;;;;;;;;;8.70;99.90;;;;;;5113928;28;19930;-62
2022/03/01 13:33:01;;;;;;;;;;;8.70;99.90;;;;;;5112866;28;20282;-63
2022/03/01 13:35:28;;;;;;;;;;;8.80;99.90;;;;;;5113866;28;20377;-63
2022/03/01 13:37:58;;;;;;;;;;;8.80;99.90;;;;;;5113894;28;20262;-63
2022/03/01 13:40:24;;;;;;;;;;;8.80;99.90;;;;;;5112499;28;20386;-63
2022/03/01 13:42:50;;;;;;;;;;;8.80;99.90;;;;;;5113864;28;20069;-63
2022/03/01 13:45:15;;;;;;;;;;;8.80;99.90;;;;;;5114328;28;19973;-63
2022/03/01 13:47:43;;;;;;;;;;;8.80;99.90;;;;;;5094373;28;20002;-63
2022/03/01 13:50:10;;;;;;;;;;;8.80;99.90;;;;;;5113434;28;19923;-63
2022/03/01 13:52:38;;;;;;;;;;;8.80;99.90;;;;;;5113906;28;20281;-63
2022/03/01 13:55:06;;;;;;;;;;;8.80;99.90;;;;;;5094634;28;19930;-63
2022/03/01 13:57:33;;;;;;;;;;;8.90;99.90;;;;;;5113266;28;20370;-63
2022/03/01 14:00:07;;;;;;;;;;;9.10;99.90;;;;;;5095368;28;19966;-63
2022/03/01 14:02:38;;;;;;;;;;;9.30;99.90;;;;;;5113223;28;20365;-63
2022/03/01 14:05:05;;;;;;;;;;;9.60;99.90;;;;;;5113715;28;19928;-63
2022/03/01 14:07:31;;;;;;;;;;;9.80;99.90;;;;;;5094567;28;20642;-63
2022/03/01 14:09:57;;;;;;;;;;;9.80;99.90;;;;;;5094714;28;20002;-63
2022/03/01 14:12:40;;;;;;;;;;;9.90;99.90;;;;;;5113736;28;19930;-63
2022/03/01 14:15:07;;;;;;;;;;;10.00;99.90;;;;;;5112148;28;19928;-63
2022/03/01 14:17:33;;;;;;;;;;;10.00;99.90;;;;;;5094686;28;19969;-64
2022/03/01 14:19:59;;;;;;;;;;;10.10;99.90;;;;;;5113430;28;20282;-63
2022/03/01 14:22:27;;;;;;;;;;;10.10;99.90;;;;;;5094340;28;19924;-63
2022/03/01 14:24:55;;;;;;;;;;;9.90;94.40;;;;;;5094610;28;20286;-63
2022/03/01 14:27:21;;;;;;;;;;;9.80;98.70;;;;;;5113498;28;19924;-63
2022/03/01 14:29:46;;;;;;;;;;;9.70;99.90;;;;;;5112418;28;19930;-63